KHIE/HIE METAR and TAF weather

Enter ICAO airport designator
Station Type Date Time Source
KHIE METAR 2021/01/20 20:52 UTC NOAA

KHIE 202052Z AUTO 28007KT 10SM FEW030 BKN046 OVC075 M05/M11 A2983 RMK AO2 SNE1954 SLP120 P0000 60000 T10501111 53020


Station Type Date Time Source
KHIE Decoded METAR 2021/01/20 20:52 UTC NOAA

MT WASHINGTON REGIONAL AIRPORT , NH, United States (KHIE) 44-22N 71-33W 318M
Jan 20, 2021 - 03:52 PM EST / 2021.01.20 2052 UTC
Wind: from the W (280 degrees) at 8 MPH (7 KT):0
Visibility: 10 mile(s):0
Sky conditions: overcast
Precipitation last hour: A trace
Temperature: 23.0 F (-5.0 C)
Windchill: 14 F (-10 C):1
Dew Point: 12.0 F (-11.1 C)
Relative Humidity: 62%
Pressure (altimeter): 29.83 in. Hg (1010 hPa)
Pressure tendency: 0.06 inches (2.0 hPa) higher than three hours ago
ob: KHIE 202052Z AUTO 28007KT 10SM FEW030 BKN046 OVC075 M05/M11 A2983 RMK AO2 SNE1954 SLP120 P0000 60000 T10501111 53020
cycle: 21

Station Type Date Time Source
KHIE TAF 2021/01/20 22:33 UTC NOAA

TAF
AMD KHIE 202130Z 2022/2118 28007KT P6SM FEW030 BKN045 OVC080
TEMPO 2022/2102 3SM -SHSN OVC030
FM210700 00000KT P6SM SCT090

Example: see airport list